createdAt,value
2022-08-17T00:00:11.007Z,98376.22
2022-08-17T00:03:09.997Z,98375.34
2022-08-17T00:05:41.858Z,98374.50
2022-08-17T00:08:14.789Z,98379.78
2022-08-17T00:10:43.286Z,98377.00
2022-08-17T00:13:25.710Z,98375.28
2022-08-17T00:15:59.714Z,98378.91
2022-08-17T00:19:06.448Z,98370.13
2022-08-17T00:21:23.918Z,98377.56
2022-08-17T00:23:55.427Z,98374.97
2022-08-17T00:26:43.123Z,98376.00
2022-08-17T00:29:10.888Z,98380.44
2022-08-17T00:31:46.318Z,98380.19
2022-08-17T00:34:12.910Z,98375.66
2022-08-17T00:36:39.440Z,98380.44
2022-08-17T00:39:06.058Z,98376.16
2022-08-17T00:41:35.636Z,98376.22
2022-08-17T00:44:04.574Z,98375.53
2022-08-17T00:46:40.396Z,98378.84
2022-08-17T00:49:08.432Z,98376.31
2022-08-17T00:51:40.943Z,98372.75
2022-08-17T00:54:19.727Z,98366.50
2022-08-17T00:56:51.146Z,98365.72
2022-08-17T00:59:22.185Z,98369.53
2022-08-17T01:01:50.786Z,98364.94
2022-08-17T01:04:21.091Z,98372.28
2022-08-17T01:06:49.644Z,98368.94
2022-08-17T01:09:17.853Z,98369.25
2022-08-17T01:11:45.573Z,98365.53
2022-08-17T01:14:12.508Z,98364.69
2022-08-17T01:16:39.718Z,98361.16
2022-08-17T01:19:24.711Z,98356.03
2022-08-17T01:22:11.412Z,98361.25
2022-08-17T01:24:53.439Z,98359.59
2022-08-17T01:27:21.385Z,98363.50
2022-08-17T01:29:53.040Z,98372.50
2022-08-17T01:32:20.146Z,98369.25
2022-08-17T01:34:50.516Z,98369.41
2022-08-17T01:37:19.222Z,98366.56
2022-08-17T01:39:52.397Z,98366.81
2022-08-17T01:42:23.607Z,98369.41
2022-08-17T01:44:56.207Z,98369.72
2022-08-17T01:47:25.913Z,98366.22
2022-08-17T01:49:52.444Z,98360.78
2022-08-17T01:52:23.845Z,98363.38
2022-08-17T01:54:51.321Z,98365.94
2022-08-17T01:57:18.300Z,98362.44
2022-08-17T01:59:44.863Z,98362.44
2022-08-17T02:02:11.448Z,98368.84
2022-08-17T02:04:56.770Z,98365.53
2022-08-17T02:07:24.636Z,98367.44
2022-08-17T02:09:53.659Z,98364.41
2022-08-17T02:12:39.224Z,98364.66
2022-08-17T02:15:12.456Z,98369.31
2022-08-17T02:17:43.375Z,98361.88
2022-08-17T02:20:10.932Z,98359.81
2022-08-17T02:22:39.747Z,98353.81
2022-08-17T02:25:10.009Z,98356.34
2022-08-17T02:27:38.673Z,98354.78
2022-08-17T02:31:01.487Z,98348.59
2022-08-17T02:32:56.490Z,98346.53
2022-08-17T02:35:23.568Z,98344.47
2022-08-17T02:37:55.485Z,98350.72
2022-08-17T02:40:36.011Z,98356.09
2022-08-17T02:43:03.531Z,98357.13
2022-08-17T02:45:30.102Z,98361.84
2022-08-17T02:47:56.655Z,98352.84
2022-08-17T02:50:25.007Z,98351.91
2022-08-17T02:53:01.477Z,98351.25
2022-08-17T02:55:36.210Z,98344.69
2022-08-17T02:58:05.570Z,98353.00
2022-08-17T03:00:37.517Z,98348.03
2022-08-17T03:03:05.969Z,98350.44
2022-08-17T03:05:35.861Z,98351.53
2022-08-17T03:08:03.256Z,98353.91
2022-08-17T03:10:29.862Z,98347.59
2022-08-17T03:12:56.416Z,98354.88
2022-08-17T03:15:26.167Z,98347.97
2022-08-17T03:17:53.942Z,98344.81
2022-08-17T03:20:21.355Z,98354.63
2022-08-17T03:22:53.607Z,98350.19
2022-08-17T03:25:24.781Z,98346.00
2022-08-17T03:27:51.733Z,98346.72
2022-08-17T03:30:18.883Z,98347.59
2022-08-17T03:32:50.347Z,98345.06
2022-08-17T03:35:19.580Z,98339.91
2022-08-17T03:37:46.298Z,98339.91
2022-08-17T03:40:13.858Z,98350.34
2022-08-17T03:42:41.637Z,98339.44
2022-08-17T03:45:15.111Z,98344.53
2022-08-17T03:48:00.988Z,98348.16
2022-08-17T03:50:46.395Z,98347.22
2022-08-17T03:53:34.739Z,98348.25
2022-08-17T03:56:22.085Z,98353.34
2022-08-17T03:58:49.577Z,98345.41
2022-08-17T04:01:17.436Z,98343.81
2022-08-17T04:03:44.071Z,98341.34
2022-08-17T04:06:10.626Z,98352.88
2022-08-17T04:08:37.149Z,98345.75
2022-08-17T04:11:03.896Z,98350.94
2022-08-17T04:13:30.428Z,98348.03
2022-08-17T04:15:59.678Z,98341.13
2022-08-17T04:18:26.343Z,98351.13
2022-08-17T04:20:53.827Z,98340.91
2022-08-17T04:23:20.558Z,98342.44
2022-08-17T04:25:50.502Z,98344.31
2022-08-17T04:28:19.309Z,98349.50
2022-08-17T04:30:47.381Z,98344.91
2022-08-17T04:33:17.402Z,98347.59
2022-08-17T04:35:49.343Z,98351.94
2022-08-17T04:38:22.196Z,98353.53
2022-08-17T04:41:07.693Z,98354.41
2022-08-17T04:43:35.551Z,98349.00
2022-08-17T04:46:10.686Z,98346.34
2022-08-17T04:48:40.799Z,98357.25
2022-08-17T04:51:15.385Z,98360.63
2022-08-17T04:53:45.210Z,98364.84
2022-08-17T04:56:18.159Z,98367.47
2022-08-17T04:58:48.102Z,98364.63
2022-08-17T05:01:23.457Z,98364.53
2022-08-17T05:03:54.707Z,98363.28
2022-08-17T05:06:21.312Z,98372.16
2022-08-17T05:08:47.904Z,98376.56
2022-08-17T05:11:14.874Z,98370.34
2022-08-17T05:13:41.848Z,98375.59
2022-08-17T05:16:09.201Z,98382.31
2022-08-17T05:18:37.197Z,98379.09
2022-08-17T05:21:04.006Z,98383.59
2022-08-17T05:23:42.534Z,98389.09
2022-08-17T05:26:23.129Z,98391.19
2022-08-17T05:29:00.638Z,98388.25
2022-08-17T05:31:29.932Z,98393.22
2022-08-17T05:33:57.115Z,98398.50
2022-08-17T05:36:38.070Z,98399.94
2022-08-17T05:39:15.640Z,98398.03
2022-08-17T05:41:45.529Z,98403.63
2022-08-17T05:44:12.100Z,98403.34
2022-08-17T05:46:43.975Z,98395.59
2022-08-17T05:49:12.414Z,98395.94
2022-08-17T05:52:00.270Z,98392.84
2022-08-17T05:54:30.207Z,98401.88
2022-08-17T05:57:24.157Z,98400.84
2022-08-17T06:00:06.236Z,98393.19
2022-08-17T06:02:42.028Z,98396.28
2022-08-17T06:05:28.045Z,98401.25
2022-08-17T06:08:06.097Z,98404.38
2022-08-17T06:10:46.714Z,98400.13
2022-08-17T06:13:32.827Z,98399.78
2022-08-17T06:16:33.213Z,98400.53
2022-08-17T06:19:11.662Z,98402.28
2022-08-17T06:21:42.585Z,98403.94
2022-08-17T06:24:15.928Z,98403.25
2022-08-17T06:26:45.473Z,98399.00
2022-08-17T06:29:25.343Z,98393.84
2022-08-17T06:31:52.064Z,98396.28
2022-08-17T06:34:21.672Z,98404.84
2022-08-17T06:37:13.180Z,98406.56
2022-08-17T06:39:55.404Z,98408.13
2022-08-17T06:43:02.424Z,98404.66
2022-08-17T06:45:36.098Z,98404.56
2022-08-17T06:48:34.991Z,98407.34
2022-08-17T06:51:10.577Z,98400.50
2022-08-17T06:53:48.366Z,98389.16
2022-08-17T06:56:27.006Z,98396.25
2022-08-17T06:59:18.576Z,98392.50
2022-08-17T07:01:48.738Z,98399.53
2022-08-17T07:04:23.897Z,98403.63
2022-08-17T07:06:58.947Z,98400.56
2022-08-17T07:09:37.214Z,98396.66
2022-08-17T07:12:18.488Z,98398.13
2022-08-17T07:14:51.821Z,98391.78
2022-08-17T07:17:22.317Z,98401.91
2022-08-17T07:20:18.655Z,98392.59
2022-08-17T07:23:00.447Z,98398.00
2022-08-17T07:25:28.589Z,98396.75
2022-08-17T07:28:04.262Z,98401.28
2022-08-17T07:30:45.856Z,98401.91
2022-08-17T07:33:25.776Z,98401.06
2022-08-17T07:35:53.220Z,98405.91
2022-08-17T07:38:29.868Z,98402.16
2022-08-17T07:41:02.799Z,98408.13
2022-08-17T07:44:01.887Z,98397.41
2022-08-17T07:47:05.231Z,98395.00
2022-08-17T07:49:31.785Z,98399.75
2022-08-17T07:52:24.913Z,98406.88
2022-08-17T07:54:48.367Z,98411.19
2022-08-17T07:57:14.921Z,98416.63
2022-08-17T07:59:44.112Z,98422.19
2022-08-17T08:02:17.167Z,98413.09
2022-08-17T08:05:01.486Z,98412.06
2022-08-17T08:07:38.257Z,98409.16
2022-08-17T08:10:16.818Z,98413.72
2022-08-17T08:12:46.637Z,98422.78
2022-08-17T08:15:26.875Z,98424.44
2022-08-17T08:18:03.836Z,98415.59
2022-08-17T08:20:53.252Z,98418.22
2022-08-17T08:23:32.589Z,98421.03
2022-08-17T08:25:59.549Z,98425.59
2022-08-17T08:29:03.681Z,98418.94
2022-08-17T08:31:57.211Z,98418.41
2022-08-17T08:35:01.452Z,98418.69
2022-08-17T08:37:45.896Z,98421.50
2022-08-17T08:40:15.519Z,98429.34
2022-08-17T08:42:57.038Z,98423.06
2022-08-17T08:45:31.561Z,98428.38
2022-08-17T08:48:07.068Z,98415.66
2022-08-17T08:51:12.264Z,98416.22
2022-08-17T08:54:13.574Z,98416.09
2022-08-17T08:57:24.479Z,98421.41
2022-08-17T09:00:15.405Z,98417.69
2022-08-17T09:03:02.607Z,98424.34
2022-08-17T09:05:31.984Z,98420.88
2022-08-17T09:08:29.010Z,98416.44
2022-08-17T09:11:03.402Z,98421.28
2022-08-17T09:13:54.198Z,98414.72
2022-08-17T09:16:43.061Z,98412.63
2022-08-17T09:19:32.128Z,98417.63
2022-08-17T09:22:07.608Z,98419.09
2022-08-17T09:24:48.755Z,98413.75
2022-08-17T09:27:19.630Z,98401.34
2022-08-17T09:29:51.633Z,98403.81
2022-08-17T09:32:24.400Z,98401.91
2022-08-17T09:34:54.909Z,98399.78
2022-08-17T09:37:49.904Z,98400.09
2022-08-17T09:40:28.872Z,98404.81
2022-08-17T09:43:25.947Z,98408.06
2022-08-17T09:46:01.756Z,98412.50
2022-08-17T09:49:15.087Z,98409.31
2022-08-17T09:51:48.638Z,98412.03
2022-08-17T09:54:44.680Z,98409.03
2022-08-17T09:57:30.195Z,98414.72
2022-08-17T10:00:18.952Z,98407.84
2022-08-17T10:03:10.377Z,98393.44
2022-08-17T10:05:48.269Z,98396.72
2022-08-17T10:08:38.752Z,98397.28
2022-08-17T10:11:51.444Z,98395.25
2022-08-17T10:15:07.623Z,98393.16
2022-08-17T10:17:56.217Z,98384.19
2022-08-17T10:20:34.975Z,98382.56
2022-08-17T10:23:26.665Z,98382.63
2022-08-17T10:26:14.575Z,98384.94
2022-08-17T10:28:52.651Z,98378.34
2022-08-17T10:31:36.458Z,98385.78
2022-08-17T10:34:20.849Z,98382.81
2022-08-17T10:36:54.677Z,98386.13
2022-08-17T10:39:25.700Z,98373.81
2022-08-17T10:41:57.929Z,98374.34
2022-08-17T10:44:44.694Z,98372.94
2022-08-17T10:47:17.614Z,98368.69
2022-08-17T10:49:53.764Z,98371.56
2022-08-17T10:52:20.619Z,98377.59
2022-08-17T10:54:57.865Z,98378.66
2022-08-17T10:57:33.879Z,98378.56
2022-08-17T11:00:25.531Z,98383.09
2022-08-17T11:02:55.848Z,98375.91
2022-08-17T11:05:44.386Z,98372.06
2022-08-17T11:09:07.814Z,98376.50
2022-08-17T11:12:13.165Z,98375.59
2022-08-17T11:14:49.458Z,98378.34
2022-08-17T11:17:24.882Z,98379.31
2022-08-17T11:20:21.149Z,98370.72
2022-08-17T11:23:19.627Z,98385.81
2022-08-17T11:25:53.234Z,98381.84
2022-08-17T11:28:34.467Z,98374.53
2022-08-17T11:31:38.747Z,98374.88
2022-08-17T11:34:27.628Z,98360.53
2022-08-17T11:37:35.542Z,98360.41
2022-08-17T11:40:29.363Z,98358.44
2022-08-17T11:42:55.862Z,98354.38
2022-08-17T11:45:52.859Z,98363.25
2022-08-17T11:49:01.341Z,98360.00
2022-08-17T11:52:01.828Z,98357.59
2022-08-17T11:54:33.814Z,98360.09
2022-08-17T11:57:25.710Z,98357.84
2022-08-17T11:59:52.686Z,98362.28
2022-08-17T12:02:31.634Z,98364.44
2022-08-17T12:05:12.421Z,98352.59
2022-08-17T12:07:52.615Z,98355.88
2022-08-17T12:10:30.193Z,98362.06
2022-08-17T12:12:57.294Z,98354.97
2022-08-17T12:15:40.581Z,98359.00
2022-08-17T12:18:07.214Z,98359.09
2022-08-17T12:20:37.664Z,98355.25
2022-08-17T12:23:24.323Z,98358.59
2022-08-17T12:26:26.272Z,98347.56
2022-08-17T12:29:03.683Z,98344.38
2022-08-17T12:31:36.628Z,98339.44
2022-08-17T12:34:05.000Z,98340.53
2022-08-17T12:36:33.243Z,98344.56
2022-08-17T12:39:13.955Z,98338.91
2022-08-17T12:41:46.827Z,98331.94
2022-08-17T12:44:23.192Z,98333.84
2022-08-17T12:46:59.671Z,98322.56
2022-08-17T12:49:32.008Z,98323.00
2022-08-17T12:52:19.770Z,98321.66
2022-08-17T12:55:07.039Z,98326.84
2022-08-17T12:57:46.109Z,98323.97
2022-08-17T13:00:22.136Z,98322.84
2022-08-17T13:02:55.927Z,98327.53
2022-08-17T13:05:35.745Z,98330.44
2022-08-17T13:08:15.956Z,98328.31
2022-08-17T13:10:43.203Z,98326.78
2022-08-17T13:13:24.783Z,98330.84
2022-08-17T13:15:55.297Z,98323.47
2022-08-17T13:18:39.952Z,98323.72
2022-08-17T13:21:20.094Z,98315.94
2022-08-17T13:24:17.526Z,98324.47
2022-08-17T13:26:49.408Z,98323.97
2022-08-17T13:29:32.421Z,98321.75
2022-08-17T13:32:11.545Z,98318.53
2022-08-17T13:35:13.217Z,98310.00
2022-08-17T13:37:37.021Z,98317.53
2022-08-17T13:40:07.487Z,98315.31
2022-08-17T13:42:53.134Z,98316.63
2022-08-17T13:45:36.493Z,98305.56
2022-08-17T13:48:13.453Z,98313.59
2022-08-17T13:51:15.508Z,98317.19
2022-08-17T13:53:41.945Z,98315.72
2022-08-17T13:56:37.587Z,98313.00
2022-08-17T13:59:06.615Z,98317.31
2022-08-17T14:01:52.854Z,98316.81
2022-08-17T14:04:34.446Z,98313.88
2022-08-17T14:07:23.056Z,98317.03
2022-08-17T14:09:57.420Z,98309.25
2022-08-17T14:12:27.108Z,98309.38
2022-08-17T14:14:55.148Z,98314.03
2022-08-17T14:17:23.138Z,98317.94
2022-08-17T14:19:50.871Z,98312.47
2022-08-17T14:22:33.007Z,98311.47
2022-08-17T14:25:01.700Z,98321.94
2022-08-17T14:27:31.895Z,98319.09
2022-08-17T14:29:58.539Z,98315.91
2022-08-17T14:32:32.968Z,98312.69
2022-08-17T14:35:00.700Z,98320.84
2022-08-17T14:37:28.808Z,98327.72
2022-08-17T14:39:58.819Z,98314.44
2022-08-17T14:42:28.065Z,98315.69
2022-08-17T14:44:56.271Z,98315.97
2022-08-17T14:47:22.886Z,98313.09
2022-08-17T14:49:50.690Z,98312.84
2022-08-17T14:52:21.632Z,98317.56
2022-08-17T14:54:51.271Z,98316.19
2022-08-17T14:57:34.023Z,98317.06
2022-08-17T15:00:02.146Z,98316.19
2022-08-17T15:02:32.370Z,98321.63
2022-08-17T15:05:01.813Z,98317.31
2022-08-17T15:07:32.055Z,98318.44
2022-08-17T15:10:01.592Z,98320.81
2022-08-17T15:12:33.752Z,98312.78
2022-08-17T15:15:05.384Z,98306.59
2022-08-17T15:17:54.959Z,98309.44
2022-08-17T15:20:28.082Z,98304.09
2022-08-17T15:22:56.121Z,98295.03
2022-08-17T15:25:32.250Z,98299.59
2022-08-17T15:28:00.172Z,98293.41
2022-08-17T15:30:27.349Z,98293.19
2022-08-17T15:32:56.577Z,98294.19
2022-08-17T15:35:29.457Z,98286.38
2022-08-17T15:38:11.665Z,98289.50
2022-08-17T15:40:46.120Z,98287.78
2022-08-17T15:43:16.592Z,98290.09
2022-08-17T15:45:44.477Z,98289.72
2022-08-17T15:48:23.630Z,98281.94
2022-08-17T15:50:50.779Z,98294.06
2022-08-17T15:53:17.416Z,98288.03
2022-08-17T15:55:43.991Z,98284.56
2022-08-17T15:58:14.060Z,98281.84
2022-08-17T16:00:53.169Z,98276.66
2022-08-17T16:03:58.039Z,98281.38
2022-08-17T16:06:19.826Z,98279.91
2022-08-17T16:08:46.467Z,98274.97
2022-08-17T16:11:14.783Z,98273.22
2022-08-17T16:13:54.787Z,98276.09
2022-08-17T16:16:26.467Z,98272.63
2022-08-17T16:18:58.547Z,98269.06
2022-08-17T16:21:26.944Z,98267.19
2022-08-17T16:23:56.937Z,98259.03
2022-08-17T16:26:24.127Z,98257.44
2022-08-17T16:28:51.339Z,98257.66
2022-08-17T16:31:17.982Z,98253.97
2022-08-17T16:34:15.752Z,98265.00
2022-08-17T16:36:31.915Z,98261.63
2022-08-17T16:38:59.395Z,98266.34
2022-08-17T16:41:44.663Z,98272.16
2022-08-17T16:44:19.960Z,98275.25
2022-08-17T16:46:47.945Z,98265.63
2022-08-17T16:49:33.621Z,98271.28
2022-08-17T16:52:03.325Z,98273.41
2022-08-17T16:54:33.047Z,98275.41
2022-08-17T16:57:00.180Z,98278.50
2022-08-17T16:59:30.840Z,98281.56
2022-08-17T17:02:10.854Z,98276.88
2022-08-17T17:04:45.869Z,98279.84
2022-08-17T17:07:41.406Z,98284.41
2022-08-17T17:10:12.546Z,98291.09
2022-08-17T17:13:02.342Z,98283.28
2022-08-17T17:15:42.932Z,98284.66
2022-08-17T17:18:12.673Z,98276.72
2022-08-17T17:20:48.200Z,98282.94
2022-08-17T17:23:25.772Z,98281.31
2022-08-17T17:26:13.988Z,98262.78
2022-08-17T17:29:48.719Z,98279.50
2022-08-17T17:32:21.760Z,98291.31
2022-08-17T17:34:53.323Z,98283.88
2022-08-17T17:37:22.779Z,98278.69
2022-08-17T17:40:00.836Z,98288.78
2022-08-17T17:42:31.543Z,98284.72
2022-08-17T17:45:25.987Z,98290.00
2022-08-17T17:47:53.435Z,98293.56
2022-08-17T17:50:26.463Z,98302.09
2022-08-17T17:52:57.526Z,98306.13
2022-08-17T17:55:39.490Z,98303.56
2022-08-17T17:58:49.702Z,98305.75
2022-08-17T18:01:23.918Z,98311.91
2022-08-17T18:04:20.886Z,98308.28
2022-08-17T18:07:22.864Z,98317.41
2022-08-17T18:09:53.725Z,98314.63
2022-08-17T18:12:51.206Z,98316.50
2022-08-17T18:15:34.010Z,98321.59
2022-08-17T18:18:16.027Z,98317.50
2022-08-17T18:20:53.333Z,98323.59
2022-08-17T18:23:28.090Z,98329.16
2022-08-17T18:25:56.007Z,98323.44
2022-08-17T18:28:25.223Z,98327.19
2022-08-17T18:31:16.463Z,98335.13
2022-08-17T18:33:48.775Z,98337.50
2022-08-17T18:36:33.373Z,98333.06
2022-08-17T18:39:19.073Z,98341.06
2022-08-17T18:41:49.004Z,98333.25
2022-08-17T18:44:35.608Z,98346.88
2022-08-17T18:47:24.104Z,98347.09
2022-08-17T18:50:27.068Z,98338.84
2022-08-17T18:52:56.018Z,98351.06
2022-08-17T18:55:25.252Z,98358.28
2022-08-17T18:58:14.490Z,98357.81
2022-08-17T19:00:46.104Z,98361.59
2022-08-17T19:03:15.679Z,98364.50
2022-08-17T19:05:49.725Z,98358.44
2022-08-17T19:08:25.504Z,98362.13
2022-08-17T19:11:07.473Z,98365.38
2022-08-17T19:13:43.319Z,98360.34
2022-08-17T19:16:27.691Z,98357.97
2022-08-17T19:19:22.557Z,98359.97
2022-08-17T19:22:28.887Z,98356.63
2022-08-17T19:25:15.204Z,98360.28
2022-08-17T19:27:57.867Z,98358.78
2022-08-17T19:30:25.913Z,98349.88
2022-08-17T19:32:53.120Z,98348.13
2022-08-17T19:35:22.774Z,98339.84
2022-08-17T19:38:19.522Z,98335.03
2022-08-17T19:41:08.956Z,98339.97
2022-08-17T19:43:48.097Z,98345.69
2022-08-17T19:46:50.042Z,98344.22
2022-08-17T19:49:41.239Z,98341.03
2022-08-17T19:52:14.446Z,98345.56
2022-08-17T19:55:02.386Z,98348.00
2022-08-17T19:57:47.384Z,98351.88
2022-08-17T20:00:17.136Z,98346.94
2022-08-17T20:03:06.236Z,98350.31
2022-08-17T20:06:01.381Z,98357.75
2022-08-17T20:08:33.940Z,98351.84
2022-08-17T20:11:03.367Z,98351.97
2022-08-17T20:13:39.069Z,98354.97
2022-08-17T20:16:06.848Z,98346.75
2022-08-17T20:18:49.051Z,98356.91
2022-08-17T20:21:20.569Z,98352.81
2022-08-17T20:23:53.525Z,98363.91
2022-08-17T20:26:30.389Z,98361.25
2022-08-17T20:29:04.266Z,98370.16
2022-08-17T20:31:49.860Z,98379.41
2022-08-17T20:34:33.590Z,98377.19
2022-08-17T20:37:06.150Z,98380.84
2022-08-17T20:39:43.161Z,98383.81
2022-08-17T20:42:15.590Z,98384.88
2022-08-17T20:44:43.207Z,98375.03
2022-08-17T20:47:29.078Z,98379.56
2022-08-17T20:50:14.761Z,98370.28
2022-08-17T20:52:57.823Z,98364.22
2022-08-17T20:55:52.332Z,98369.25
2022-08-17T20:58:29.873Z,98366.91
2022-08-17T21:00:57.819Z,98367.44
2022-08-17T21:03:24.466Z,98366.72
2022-08-17T21:06:00.732Z,98372.31
2022-08-17T21:08:32.186Z,98367.75
2022-08-17T21:11:00.359Z,98363.56
2022-08-17T21:13:38.720Z,98360.78
2022-08-17T21:16:34.693Z,98360.44
2022-08-17T21:19:19.508Z,98359.56
2022-08-17T21:22:21.236Z,98360.44
2022-08-17T21:25:02.840Z,98364.09
2022-08-17T21:27:50.473Z,98352.25
2022-08-17T21:30:46.673Z,98364.56
2022-08-17T21:33:31.634Z,98356.78
2022-08-17T21:36:11.422Z,98363.47
2022-08-17T21:39:06.342Z,98367.84
2022-08-17T21:41:45.299Z,98367.66
2022-08-17T21:44:19.303Z,98346.97
2022-08-17T21:46:50.133Z,98355.25
2022-08-17T21:49:20.520Z,98360.78
2022-08-17T21:51:51.303Z,98354.38
2022-08-17T21:54:38.720Z,98353.13
2022-08-17T21:57:14.569Z,98351.50
2022-08-17T21:59:43.632Z,98358.03
2022-08-17T22:02:23.774Z,98355.78
2022-08-17T22:05:24.366Z,98357.06
2022-08-17T22:08:02.124Z,98356.75
2022-08-17T22:10:40.949Z,98361.34
2022-08-17T22:13:19.777Z,98362.22
2022-08-17T22:16:27.810Z,98361.88
2022-08-17T22:18:57.724Z,98364.13
2022-08-17T22:21:25.077Z,98369.09
2022-08-17T22:24:20.330Z,98367.19
2022-08-17T22:27:05.019Z,98372.66
2022-08-17T22:29:57.268Z,98367.78
2022-08-17T22:32:33.237Z,98368.06
2022-08-17T22:35:31.400Z,98367.09
2022-08-17T22:38:17.850Z,98375.38
2022-08-17T22:40:57.494Z,98373.34
2022-08-17T22:43:28.820Z,98379.72
2022-08-17T22:45:58.939Z,98373.88
2022-08-17T22:48:32.555Z,98385.69
2022-08-17T22:51:13.561Z,98384.66
2022-08-17T22:54:33.968Z,98386.06
2022-08-17T22:57:22.256Z,98393.69
2022-08-17T22:59:55.564Z,98399.09
2022-08-17T23:02:22.162Z,98398.75
2022-08-17T23:05:12.953Z,98401.88
2022-08-17T23:07:42.485Z,98402.13
2022-08-17T23:10:10.997Z,98410.72
2022-08-17T23:12:40.583Z,98410.81
2022-08-17T23:15:16.882Z,98411.50
2022-08-17T23:17:44.504Z,98403.69
2022-08-17T23:20:15.056Z,98412.19
2022-08-17T23:22:52.461Z,98414.19
2022-08-17T23:25:27.045Z,98404.81
2022-08-17T23:27:54.470Z,98403.69
2022-08-17T23:30:24.913Z,98401.63
2022-08-17T23:32:53.727Z,98407.06
2022-08-17T23:35:39.190Z,98400.91
2022-08-17T23:38:07.758Z,98399.53
2022-08-17T23:40:41.166Z,98384.56
2022-08-17T23:43:17.542Z,98383.34
2022-08-17T23:45:51.895Z,98385.69
2022-08-17T23:48:28.504Z,98391.88
2022-08-17T23:51:05.807Z,98390.22
2022-08-17T23:53:36.207Z,98387.38
2022-08-17T23:56:09.174Z,98383.13
2022-08-17T23:58:38.458Z,98371.50
